Time;durP1;ratioP1;P1;durP2;ratioP2;P2;SDS_P1;SDS_P2;PMS_P1;PMS_P2;Temp;Humidity;BMP_temperature;BMP_pressure;BME280_temperature;BME280_humidity;BME280_pressure;Samples;Min_cycle;Max_cycle;Signal;HPM_P1;HPM_P2
2022/03/30 00:02:08;;;;;;;37.40;22.63;;;14.00;81.00;;;;;;6245692;23;20157;-89
2022/03/30 00:04:36;;;;;;;33.80;22.90;;;14.00;81.30;;;;;;6245961;23;20542;-88
2022/03/30 00:07:02;;;;;;;37.77;22.57;;;13.90;81.70;;;;;;6245295;23;20273;-89
2022/03/30 00:09:28;;;;;;;39.63;23.17;;;13.80;81.70;;;;;;6254774;22;20169;-88
2022/03/30 00:11:56;;;;;;;30.70;20.83;;;13.70;82.80;;;;;;6250084;22;20162;-88
2022/03/30 00:14:22;;;;;;;36.77;22.77;;;13.60;82.50;;;;;;6250729;22;20210;-88
2022/03/30 00:16:48;;;;;;;36.67;22.40;;;13.60;82.30;;;;;;6250958;22;20152;-88
2022/03/30 00:19:14;;;;;;;38.23;22.77;;;13.50;82.60;;;;;;6251043;22;20141;-88
2022/03/30 00:21:39;;;;;;;33.07;22.63;;;13.50;82.10;;;;;;6250554;22;20154;-89
2022/03/30 00:24:05;;;;;;;38.93;22.90;;;13.60;81.90;;;;;;6250696;22;20171;-88
2022/03/30 00:26:31;;;;;;;40.47;23.27;;;13.50;82.30;;;;;;6250325;22;20651;-88
2022/03/30 00:28:56;;;;;;;35.30;22.27;;;13.40;82.30;;;;;;6250532;22;20151;-87
2022/03/30 00:31:22;;;;;;;39.60;23.50;;;13.30;82.50;;;;;;6250495;22;20193;-88
2022/03/30 00:33:50;;;;;;;38.43;22.83;;;13.40;82.50;;;;;;6250802;22;20177;-87
2022/03/30 00:36:16;;;;;;;36.07;22.70;;;13.20;82.90;;;;;;6250888;22;20150;-88
2022/03/30 00:38:41;;;;;;;41.20;22.47;;;13.30;83.10;;;;;;6276025;22;20172;-88
2022/03/30 00:41:07;;;;;;;42.50;22.43;;;13.30;83.00;;;;;;6250286;22;20154;-88
2022/03/30 00:43:34;;;;;;;35.87;22.17;;;13.30;83.00;;;;;;6250065;22;20189;-88
2022/03/30 00:46:00;;;;;;;39.33;21.87;;;13.10;83.30;;;;;;6250309;22;20186;-88
2022/03/30 00:48:25;;;;;;;33.93;21.37;;;13.00;84.20;;;;;;6250692;22;20156;-88
2022/03/30 00:50:51;;;;;;;36.93;22.27;;;13.00;83.60;;;;;;6250922;22;20156;-88
2022/03/30 00:53:17;;;;;;;36.97;22.07;;;13.10;83.50;;;;;;6250420;22;20250;-88
2022/03/30 00:55:42;;;;;;;38.80;22.57;;;13.00;83.30;;;;;;6250284;22;20581;-88
2022/03/30 00:58:09;;;;;;;40.13;21.70;;;13.00;83.40;;;;;;6250184;22;20200;-88
2022/03/30 01:00:34;;;;;;;36.67;22.57;;;13.00;83.50;;;;;;6250460;22;20189;-88
2022/03/30 01:03:00;;;;;;;40.90;23.10;;;12.90;83.50;;;;;;6252442;22;20495;-88
2022/03/30 01:05:26;;;;;;;38.27;22.47;;;12.90;84.10;;;;;;6251435;22;20253;-88
2022/03/30 01:07:57;;;;;;;36.27;21.97;;;13.10;83.40;;;;;;6249878;22;20590;-89
2022/03/30 01:10:24;;;;;;;40.40;22.10;;;13.10;83.40;;;;;;6250043;22;20168;-89
2022/03/30 01:12:52;;;;;;;39.97;23.10;;;13.10;83.00;;;;;;6250215;22;20153;-88
2022/03/30 01:15:18;;;;;;;34.73;20.77;;;13.30;82.20;;;;;;6250364;22;20235;-89
2022/03/30 01:17:44;;;;;;;35.43;21.33;;;13.20;82.30;;;;;;6250113;22;20146;-88
2022/03/30 01:20:11;;;;;;;44.30;21.60;;;13.20;82.40;;;;;;6250264;22;20243;-88
2022/03/30 01:22:37;;;;;;;34.30;20.93;;;13.00;82.60;;;;;;6250237;22;20175;-89
2022/03/30 01:25:03;;;;;;;33.93;21.37;;;12.90;82.90;;;;;;6249906;22;20616;-89
2022/03/30 01:27:30;;;;;;;34.67;21.97;;;12.90;82.80;;;;;;6250187;22;20260;-89
2022/03/30 01:32:41;;;;;;;35.43;21.37;;;12.80;83.50;;;;;;6277025;22;20231;-88
2022/03/30 01:35:10;;;;;;;36.67;21.90;;;12.90;83.10;;;;;;6249834;22;20236;-88
2022/03/30 01:37:36;;;;;;;35.10;21.43;;;12.70;83.40;;;;;;6250262;22;20184;-88
2022/03/30 01:40:04;;;;;;;35.77;21.80;;;12.80;83.30;;;;;;6249656;22;20156;-89
2022/03/30 01:42:30;;;;;;;35.37;21.10;;;12.70;83.60;;;;;;6250240;22;20147;-88
2022/03/30 01:44:56;;;;;;;36.20;21.97;;;12.80;83.80;;;;;;6249747;22;20153;-89
2022/03/30 01:47:22;;;;;;;37.13;21.73;;;12.70;83.70;;;;;;6250361;22;20643;-89
2022/03/30 01:49:48;;;;;;;39.63;22.80;;;12.70;83.70;;;;;;6250069;22;20169;-89
2022/03/30 01:52:16;;;;;;;39.40;23.10;;;12.60;84.00;;;;;;6249709;22;20213;-89
2022/03/30 01:54:43;;;;;;;35.90;21.97;;;12.50;84.20;;;;;;6249624;22;20139;-88
2022/03/30 01:57:13;;;;;;;37.43;21.00;;;12.40;84.60;;;;;;6250160;22;20148;-88
2022/03/30 01:59:40;;;;;;;38.93;22.77;;;12.20;85.10;;;;;;6250076;22;20172;-89
2022/03/30 02:02:07;;;;;;;40.07;22.17;;;12.20;85.40;;;;;;6249860;22;20145;-88
2022/03/30 02:04:34;;;;;;;41.07;22.37;;;12.00;85.90;;;;;;6249810;22;20147;-88
2022/03/30 02:07:02;;;;;;;37.40;21.47;;;12.00;86.20;;;;;;6249966;22;20180;-89
2022/03/30 02:09:28;;;;;;;37.23;23.23;;;11.80;86.50;;;;;;6249554;22;20239;-89
2022/03/30 02:11:54;;;;;;;42.17;22.30;;;11.80;86.80;;;;;;6250517;22;20148;-89
2022/03/30 02:14:20;;;;;;;39.23;22.13;;;11.80;87.10;;;;;;6249957;22;20679;-88
2022/03/30 02:16:47;;;;;;;40.13;21.87;;;11.70;87.40;;;;;;6250201;22;20178;-89
2022/03/30 02:19:13;;;;;;;33.60;22.03;;;11.80;86.90;;;;;;6249580;22;20157;-89
2022/03/30 02:21:39;;;;;;;39.70;22.87;;;11.90;86.60;;;;;;6249971;22;20228;-89
2022/03/30 02:24:06;;;;;;;36.33;22.53;;;12.00;86.10;;;;;;6249519;22;20147;-89
2022/03/30 02:26:32;;;;;;;39.40;22.40;;;11.90;86.40;;;;;;6249893;22;20240;-88
2022/03/30 02:28:59;;;;;;;41.00;22.63;;;11.90;86.60;;;;;;6250026;22;20510;-88
2022/03/30 02:31:24;;;;;;;37.50;20.13;;;12.00;85.90;;;;;;6275029;22;20156;-88
2022/03/30 02:33:50;;;;;;;41.37;23.20;;;12.10;85.40;;;;;;6249928;22;20170;-90
2022/03/30 02:36:16;;;;;;;37.10;22.10;;;12.20;85.00;;;;;;6249415;22;20579;-89
2022/03/30 02:38:43;;;;;;;38.37;21.37;;;12.20;85.30;;;;;;6249676;22;20161;-90
2022/03/30 02:41:09;;;;;;;36.57;22.30;;;12.20;85.50;;;;;;6249492;22;20154;-89
2022/03/30 02:43:35;;;;;;;40.63;21.37;;;12.10;85.70;;;;;;6249812;22;20143;-90
2022/03/30 02:46:02;;;;;;;41.10;21.33;;;12.10;85.80;;;;;;6249368;22;20213;-90
2022/03/30 02:48:32;;;;;;;38.80;23.07;;;12.00;86.00;;;;;;6249829;22;20219;-90
2022/03/30 02:51:04;;;;;;;41.03;22.17;;;11.90;86.50;;;;;;6249381;22;20519;-88
2022/03/30 02:53:30;;;;;;;40.77;22.37;;;12.00;86.00;;;;;;6249778;22;20147;-90
2022/03/30 02:55:56;;;;;;;33.70;20.30;;;12.00;86.20;;;;;;6249438;22;20178;-89
2022/03/30 02:58:22;;;;;;;40.97;21.27;;;12.00;86.10;;;;;;6249483;22;20143;-89
2022/03/30 03:00:49;;;;;;;40.50;21.50;;;11.90;86.60;;;;;;6249809;22;20171;-89
2022/03/30 03:03:15;;;;;;;36.40;20.60;;;11.80;87.70;;;;;;6249927;22;20155;-87
2022/03/30 03:05:42;;;;;;;38.60;20.63;;;11.80;87.10;;;;;;6249501;22;20174;-89
2022/03/30 03:08:10;;;;;;;39.80;20.90;;;11.70;88.30;;;;;;6249678;22;20146;-87
2022/03/30 03:10:38;;;;;;;41.67;21.57;;;11.80;87.00;;;;;;6249170;22;20619;-87
2022/03/30 03:13:04;;;;;;;35.50;20.73;;;12.00;86.80;;;;;;6249335;22;20183;-90
2022/03/30 03:15:31;;;;;;;44.83;22.07;;;11.80;87.10;;;;;;6249556;22;20155;-89
2022/03/30 03:17:58;;;;;;;40.77;22.20;;;11.90;87.20;;;;;;6249945;22;20143;-89
2022/03/30 03:20:24;;;;;;;40.90;21.80;;;11.70;87.50;;;;;;6249539;22;20176;-91
2022/03/30 03:22:50;;;;;;;40.43;22.03;;;11.60;87.80;;;;;;6249653;22;20166;-89
2022/03/30 03:25:16;;;;;;;38.80;20.60;;;11.80;87.60;;;;;;6249558;22;20611;-90
2022/03/30 03:27:41;;;;;;;40.03;21.67;;;11.90;87.00;;;;;;6250458;22;20150;-90
2022/03/30 03:30:08;;;;;;;38.27;21.20;;;11.80;87.40;;;;;;6249964;22;20148;-90
2022/03/30 03:32:34;;;;;;;38.63;21.93;;;11.80;87.40;;;;;;6250445;22;20151;-90
2022/03/30 03:35:00;;;;;;;35.03;20.90;;;11.90;87.30;;;;;;6251013;22;20155;-90
2022/03/30 03:37:25;;;;;;;37.70;20.60;;;12.00;86.80;;;;;;6251272;22;20170;-90
2022/03/30 03:39:51;;;;;;;40.87;20.97;;;12.10;86.30;;;;;;6251450;22;20182;-90
2022/03/30 03:42:17;;;;;;;36.43;20.17;;;12.00;86.80;;;;;;6251155;22;20197;-90
2022/03/30 03:44:44;;;;;;;37.90;20.43;;;11.80;87.70;;;;;;6251119;22;20223;-90
2022/03/30 03:47:09;;;;;;;40.67;21.10;;;11.90;87.20;;;;;;6251129;22;20188;-91
2022/03/30 03:49:36;;;;;;;34.73;19.60;;;11.90;87.40;;;;;;6251028;22;20166;-90
2022/03/30 03:52:03;;;;;;;35.47;21.43;;;12.00;86.90;;;;;;6250936;22;20159;-90
2022/03/30 03:54:29;;;;;;;36.57;20.37;;;12.00;86.60;;;;;;6250877;22;20157;-90
2022/03/30 03:56:56;;;;;;;36.50;20.50;;;12.00;86.80;;;;;;6251560;22;20229;-90
2022/03/30 03:59:21;;;;;;;41.17;22.90;;;11.90;87.10;;;;;;6255216;22;20580;-90
2022/03/30 04:01:47;;;;;;;33.80;20.73;;;12.00;86.60;;;;;;6254058;22;20182;-90
2022/03/30 04:04:12;;;;;;;36.30;20.73;;;11.80;87.40;;;;;;6250768;22;20155;-90
2022/03/30 04:06:39;;;;;;;38.77;19.30;;;11.70;87.70;;;;;;6251143;22;20185;-88
2022/03/30 04:09:05;;;;;;;38.20;19.93;;;11.60;88.00;;;;;;6250965;22;20169;-87
2022/03/30 04:11:31;;;;;;;36.13;20.53;;;11.70;87.60;;;;;;6250770;22;20237;-89
2022/03/30 04:13:56;;;;;;;38.37;19.67;;;11.60;88.00;;;;;;6251340;22;20536;-90
2022/03/30 04:16:22;;;;;;;35.53;19.97;;;11.50;88.20;;;;;;6250917;22;20182;-89
2022/03/30 04:18:49;;;;;;;33.70;19.53;;;11.30;88.80;;;;;;6250821;22;20153;-88
2022/03/30 04:21:14;;;;;;;38.10;20.60;;;11.50;88.30;;;;;;6250542;22;20143;-91
2022/03/30 04:23:40;;;;;;;35.83;20.03;;;11.40;88.30;;;;;;6250918;22;20150;-88
2022/03/30 04:26:08;;;;;;;33.97;18.73;;;11.20;89.70;;;;;;6250895;22;20257;-88
2022/03/30 04:28:40;;;;;;;41.40;20.40;;;11.40;89.20;;;;;;6250592;22;20143;-90
2022/03/30 04:31:09;;;;;;;42.60;20.20;;;11.40;89.60;;;;;;6250707;22;20170;-89
2022/03/30 04:33:35;;;;;;;33.87;19.80;;;11.30;88.90;;;;;;6250342;22;20169;-90
2022/03/30 04:36:02;;;;;;;34.90;19.67;;;11.10;89.90;;;;;;6250939;22;20245;-90
2022/03/30 04:38:27;;;;;;;37.97;19.47;;;11.20;90.00;;;;;;6250474;22;20143;-91
2022/03/30 11:37:35;;;;;;;19.40;10.90;;;17.00;64.30;;;;;;6265226;22;20433;-92
2022/03/30 11:40:03;;;;;;;20.70;11.83;;;16.90;65.00;;;;;;6282163;22;20157;-92
2022/03/30 11:42:29;;;;;;;18.13;11.53;;;16.90;64.70;;;;;;6309207;22;20237;-89
2022/03/30 11:45:12;;;;;;;22.10;11.20;;;16.80;64.80;;;;;;6307761;22;20146;-91
2022/03/30 11:47:41;;;;;;;21.10;10.77;;;16.90;64.30;;;;;;6281763;22;20585;-86
2022/03/30 11:50:06;;;;;;;23.50;11.80;;;16.80;65.20;;;;;;6309426;22;20137;-90
2022/03/30 11:52:32;;;;;;;17.37;10.77;;;16.80;65.00;;;;;;6308259;22;20154;-90
2022/03/30 11:54:58;;;;;;;20.23;11.83;;;16.80;65.50;;;;;;6307852;22;20153;-89
2022/03/30 11:57:24;;;;;;;19.70;12.00;;;16.80;65.00;;;;;;6281832;22;20232;-92
2022/03/30 12:00:03;;;;;;;19.03;11.20;;;16.80;65.20;;;;;;6281790;22;20173;-91
2022/03/30 12:02:29;;;;;;;20.50;12.67;;;16.80;65.10;;;;;;6281982;22;20226;-91
2022/03/30 12:04:56;;;;;;;27.37;13.20;;;16.90;65.00;;;;;;6282266;22;20150;-92
2022/03/30 12:07:22;;;;;;;19.80;12.10;;;16.90;65.00;;;;;;6282293;22;20200;-92
2022/03/30 12:09:52;;;;;;;21.93;12.13;;;16.80;65.20;;;;;;6282056;22;20150;-92
2022/03/30 12:12:39;;;;;;;22.33;11.53;;;16.80;65.10;;;;;;6309167;22;20265;-92
2022/03/30 15:20:15;;;;;;;16.17;9.53;;;16.60;63.10;;;;;;6302738;22;20219;-88
2022/03/30 15:22:42;;;;;;;15.90;8.77;;;16.50;63.90;;;;;;6280370;22;20146;-87
2022/03/30 15:25:09;;;;;;;15.10;9.37;;;16.50;63.50;;;;;;6279983;22;20157;-88
2022/03/30 15:27:36;;;;;;;15.10;9.13;;;16.40;63.90;;;;;;6281206;22;20188;-88
2022/03/30 15:30:05;;;;;;;17.07;9.40;;;16.40;64.50;;;;;;6282186;22;20153;-89
2022/03/30 15:32:31;;;;;;;15.27;9.73;;;16.30;64.70;;;;;;6282886;22;20159;-88
2022/03/30 15:34:57;;;;;;;17.80;9.40;;;16.30;64.70;;;;;;6282272;22;20150;-88
2022/03/30 15:37:31;;;;;;;20.50;9.53;;;16.50;64.30;;;;;;6285514;22;20153;-93
2022/03/30 15:39:57;;;;;;;14.77;8.97;;;16.60;64.10;;;;;;6284953;22;20150;-93
2022/03/30 15:42:23;;;;;;;17.57;10.27;;;16.60;64.30;;;;;;6286187;22;20157;-93
2022/03/30 15:44:48;;;;;;;20.37;10.23;;;16.60;62.70;;;;;;6308305;22;20646;-92
2022/03/30 15:47:14;;;;;;;18.27;10.10;;;16.70;62.20;;;;;;6307294;22;20536;-91
2022/03/30 15:49:41;;;;;;;16.63;9.70;;;16.50;62.10;;;;;;6281502;22;20157;-92
2022/03/30 15:52:07;;;;;;;16.13;10.27;;;16.40;64.20;;;;;;6279793;22;20150;-91
2022/03/30 15:54:32;;;;;;;17.97;11.27;;;16.40;63.00;;;;;;6305042;22;20153;-90
2022/03/30 15:57:00;;;;;;;19.50;11.17;;;16.50;62.50;;;;;;6304775;22;20158;-89
2022/03/30 15:59:26;;;;;;;19.80;10.33;;;16.60;61.70;;;;;;6288770;22;20174;-90
2022/03/30 16:01:52;;;;;;;21.00;10.80;;;16.50;62.10;;;;;;6275843;22;20560;-90
2022/03/30 16:04:18;;;;;;;22.87;10.70;;;16.50;62.60;;;;;;6249173;22;20146;-91
2022/03/30 16:06:43;;;;;;;16.30;10.20;;;16.40;63.10;;;;;;6249125;22;20239;-92
2022/03/30 16:09:09;;;;;;;17.93;10.30;;;16.30;62.70;;;;;;6252108;22;20231;-91
2022/03/30 16:14:41;;;;;;;18.23;10.60;;;16.20;63.00;;;;;;6185646;23;20184;-91
2022/03/30 16:17:07;;;;;;;16.27;10.10;;;16.30;63.30;;;;;;6160081;23;20160;-92
2022/03/30 16:19:34;;;;;;;18.43;10.20;;;16.60;64.30;;;;;;6203623;22;20207;-94
2022/03/30 16:22:00;;;;;;;16.77;10.10;;;16.20;65.60;;;;;;6251126;22;20204;-94
2022/03/30 16:24:26;;;;;;;15.90;10.90;;;16.10;66.50;;;;;;6250840;22;20174;-95
2022/03/30 16:26:56;;;;;;;18.43;11.27;;;16.10;67.30;;;;;;6277915;22;20170;-93
2022/03/30 16:29:22;;;;;;;19.23;10.67;;;16.10;67.70;;;;;;6277954;22;20205;-94
2022/03/30 16:31:48;;;;;;;19.67;11.17;;;16.00;66.90;;;;;;6251061;22;20154;-93
2022/03/30 16:34:14;;;;;;;18.43;11.27;;;15.90;66.70;;;;;;6251150;22;20146;-94
2022/03/30 16:36:41;;;;;;;20.37;10.87;;;15.80;66.80;;;;;;6251032;22;20189;-95
2022/03/30 16:39:08;;;;;;;19.07;10.13;;;15.90;66.10;;;;;;6250749;22;20164;-94
2022/03/30 16:41:34;;;;;;;18.77;10.63;;;15.90;65.40;;;;;;6251122;22;20154;-94
2022/03/30 16:44:01;;;;;;;22.87;15.67;;;16.00;65.40;;;;;;6250947;22;20645;-93
2022/03/30 16:46:27;;;;;;;23.17;16.03;;;15.80;65.20;;;;;;6251198;22;20263;-94
2022/03/30 16:48:52;;;;;;;21.57;12.03;;;15.70;66.00;;;;;;6277812;22;20193;-95
2022/03/30 16:51:20;;;;;;;18.03;10.03;;;15.60;65.50;;;;;;6251370;22;20484;-94
2022/03/30 16:53:46;;;;;;;15.83;9.63;;;15.60;65.90;;;;;;6250573;22;20166;-94
2022/03/30 16:56:12;;;;;;;17.10;9.87;;;15.40;66.50;;;;;;6251140;22;20200;-94
2022/03/30 16:58:38;;;;;;;20.07;9.37;;;15.30;66.40;;;;;;6251301;22;20533;-94
2022/03/30 17:01:04;;;;;;;16.40;9.67;;;15.40;66.60;;;;;;6278377;22;20143;-94
2022/03/30 17:03:30;;;;;;;17.27;10.13;;;15.40;66.90;;;;;;6251872;22;20170;-92
2022/03/30 17:05:59;;;;;;;20.07;10.07;;;15.40;66.70;;;;;;6252836;22;20177;-95
2022/03/30 17:11:10;;;;;;;15.87;10.20;;;15.40;67.10;;;;;;6281285;22;20146;-95
2022/03/30 17:13:36;;;;;;;17.63;9.67;;;15.30;67.70;;;;;;6255474;22;20173;-93
2022/03/30 17:16:02;;;;;;;18.40;10.23;;;15.40;66.90;;;;;;6254545;22;20156;-94
2022/03/30 17:18:28;;;;;;;22.60;10.50;;;15.20;67.50;;;;;;6261380;22;20149;-94
2022/03/30 17:20:53;;;;;;;18.03;10.17;;;15.10;67.70;;;;;;6263835;22;20160;-95
2022/03/30 17:23:19;;;;;;;19.30;11.00;;;15.20;67.80;;;;;;6258715;22;20608;-94
2022/03/30 17:25:45;;;;;;;21.60;10.87;;;15.20;68.20;;;;;;6255729;22;20176;-96
2022/03/30 17:28:12;;;;;;;16.13;9.63;;;15.20;68.40;;;;;;6257176;22;20152;-95
2022/03/30 17:30:38;;;;;;;19.97;10.63;;;15.10;68.20;;;;;;6255784;22;20161;-95
2022/03/30 17:33:05;;;;;;;13.67;10.10;;;15.20;68.90;;;;;;6255641;22;20150;-96
2022/03/30 17:35:32;;;;;;;15.37;9.43;;;15.10;69.60;;;;;;6256708;22;20181;-94
2022/03/30 17:37:58;;;;;;;15.50;9.57;;;15.00;69.30;;;;;;6256524;22;20538;-94
2022/03/30 17:40:26;;;;;;;14.87;9.20;;;15.00;68.80;;;;;;6257129;22;20157;-94
2022/03/30 17:42:52;;;;;;;18.73;9.63;;;15.00;68.60;;;;;;6258632;22;20146;-96
2022/03/30 17:45:19;;;;;;;19.47;10.17;;;15.00;69.40;;;;;;6258985;22;20179;-95
2022/03/30 17:47:46;;;;;;;15.90;10.13;;;14.90;69.90;;;;;;6266804;22;20163;-93
2022/03/30 17:52:58;;;;;;;17.33;9.80;;;14.80;70.70;;;;;;6295009;22;20279;-96
2022/03/30 17:55:28;;;;;;;19.17;9.63;;;14.70;70.80;;;;;;6281926;22;20135;-85
2022/03/30 17:57:54;;;;;;;17.57;9.87;;;14.70;70.70;;;;;;6255122;22;20149;-88
2022/03/30 18:00:24;;;;;;;14.63;9.37;;;14.60;72.20;;;;;;6253616;22;20173;-91
2022/03/30 18:02:50;;;;;;;16.80;8.97;;;14.60;70.80;;;;;;6254404;22;20152;-85
2022/03/30 18:05:15;;;;;;;14.53;9.27;;;14.60;71.40;;;;;;6252699;22;20480;-92
2022/03/30 18:07:41;;;;;;;13.03;9.07;;;14.60;71.80;;;;;;6254691;22;20184;-95
2022/03/30 18:10:12;;;;;;;16.63;10.70;;;14.50;72.70;;;;;;6282170;22;20165;-95
2022/03/30 18:12:45;;;;;;;20.60;11.23;;;14.60;74.10;;;;;;6255620;22;20241;-95
2022/03/30 18:15:12;;;;;;;17.67;10.67;;;14.60;73.70;;;;;;6256621;22;20150;-96
2022/03/30 18:17:40;;;;;;;18.83;10.57;;;14.50;74.60;;;;;;6256029;22;20175;-95
2022/03/30 18:20:08;;;;;;;15.97;10.13;;;14.60;74.70;;;;;;6274638;22;20185;-88
2022/03/30 18:22:34;;;;;;;21.03;12.50;;;14.50;74.20;;;;;;6275962;22;20153;-95
2022/03/30 18:25:01;;;;;;;17.47;11.73;;;14.40;75.10;;;;;;6260824;22;20153;-95
2022/03/30 18:27:27;;;;;;;19.17;10.53;;;14.40;73.40;;;;;;6256331;22;20183;-95
2022/03/30 18:29:56;;;;;;;17.33;10.90;;;14.40;76.50;;;;;;6255411;22;20198;-96
2022/03/30 18:32:21;;;;;;;19.23;11.63;;;14.60;74.40;;;;;;6257725;22;20172;-95
2022/03/30 18:34:48;;;;;;;22.07;11.20;;;14.60;74.40;;;;;;6257577;22;20584;-96
2022/03/30 18:37:15;;;;;;;19.67;11.30;;;14.50;74.80;;;;;;6233681;22;20170;-94
2022/03/30 18:39:43;;;;;;;22.60;12.40;;;14.30;75.80;;;;;;6258304;22;20180;-95
2022/03/30 18:42:08;;;;;;;17.57;10.83;;;14.10;76.90;;;;;;6256210;22;20149;-95
2022/03/30 18:44:34;;;;;;;18.37;11.07;;;14.00;76.80;;;;;;6255398;22;20489;-95
2022/03/30 18:47:00;;;;;;;19.90;11.47;;;13.90;75.80;;;;;;6251924;22;20230;-96
2022/03/30 18:49:25;;;;;;;19.27;10.87;;;14.10;76.40;;;;;;6251033;22;20220;-94
2022/03/30 18:51:52;;;;;;;20.50;11.33;;;14.40;74.60;;;;;;6251693;22;20161;-94
2022/03/30 18:54:19;;;;;;;19.40;11.33;;;14.30;76.10;;;;;;6251926;22;20150;-96
2022/03/30 18:56:44;;;;;;;19.00;11.67;;;14.20;75.70;;;;;;6251612;22;20155;-93
2022/03/30 18:59:11;;;;;;;21.20;11.73;;;13.90;77.60;;;;;;6251011;22;20635;-93
2022/03/30 19:01:36;;;;;;;16.67;11.17;;;13.80;79.00;;;;;;6251508;22;20166;-95
2022/03/30 19:04:02;;;;;;;19.80;12.30;;;13.80;79.10;;;;;;6255912;22;20180;-95
2022/03/30 19:06:31;;;;;;;17.93;11.97;;;13.90;77.90;;;;;;6254134;22;20221;-95
2022/03/30 19:08:57;;;;;;;18.10;11.43;;;14.10;78.10;;;;;;6254474;22;20204;-93
2022/03/30 19:11:23;;;;;;;18.50;11.87;;;14.10;78.40;;;;;;6254558;22;20154;-96
2022/03/30 19:13:49;;;;;;;20.33;12.40;;;14.10;79.00;;;;;;6278659;22;20162;-95
2022/03/30 19:16:14;;;;;;;19.50;12.37;;;13.90;79.50;;;;;;6252783;22;20154;-94
2022/03/30 19:18:40;;;;;;;23.90;13.50;;;13.80;79.70;;;;;;6252526;22;20599;-93
2022/03/30 19:21:06;;;;;;;27.07;14.70;;;13.80;80.60;;;;;;6252898;22;20276;-93
2022/03/30 19:23:31;;;;;;;22.30;13.63;;;13.80;80.10;;;;;;6254252;22;20228;-95
2022/03/30 19:25:59;;;;;;;19.77;12.63;;;13.70;80.80;;;;;;6253044;22;20179;-96
2022/03/30 19:28:25;;;;;;;20.97;13.57;;;13.70;80.70;;;;;;6253367;22;20154;-96
2022/03/30 19:30:51;;;;;;;22.90;12.93;;;13.70;80.80;;;;;;6253081;22;20165;-96
2022/03/30 19:33:17;;;;;;;20.07;13.17;;;13.80;80.70;;;;;;6252156;22;20176;-95
2022/03/30 19:35:47;;;;;;;25.50;14.07;;;13.50;83.10;;;;;;6252129;22;20150;-91
2022/03/30 19:38:15;;;;;;;22.57;14.23;;;13.60;82.60;;;;;;6252403;22;20177;-90
2022/03/30 19:40:41;;;;;;;20.63;13.57;;;13.60;82.30;;;;;;6252181;22;20152;-92
2022/03/30 19:43:08;;;;;;;27.57;14.97;;;13.40;82.50;;;;;;6252833;22;20171;-95
2022/03/30 19:45:34;;;;;;;30.33;14.20;;;13.40;83.50;;;;;;6252479;22;20158;-94
2022/03/30 19:48:01;;;;;;;24.63;13.93;;;13.40;83.70;;;;;;6251936;22;20540;-92
2022/03/30 19:50:26;;;;;;;24.77;14.47;;;13.60;82.70;;;;;;6251859;22;20215;-92
2022/03/30 19:52:52;;;;;;;23.03;14.53;;;13.50;83.70;;;;;;6252730;22;20168;-96
2022/03/30 19:55:24;;;;;;;24.43;14.77;;;13.20;85.00;;;;;;6252044;22;20178;-94
2022/03/30 19:57:50;;;;;;;24.37;14.23;;;13.10;86.30;;;;;;6251981;22;20475;-92
2022/03/30 20:00:17;;;;;;;23.13;14.80;;;13.10;86.40;;;;;;6251878;22;20184;-94
2022/03/30 20:02:44;;;;;;;25.23;14.40;;;13.10;86.60;;;;;;6277857;22;20163;-94
2022/03/30 20:05:10;;;;;;;25.07;15.27;;;13.00;87.70;;;;;;6251839;22;20184;-93
2022/03/30 20:07:36;;;;;;;27.13;15.90;;;13.10;88.20;;;;;;6252732;22;20193;-96
2022/03/30 20:10:03;;;;;;;26.33;14.77;;;13.10;88.00;;;;;;6253024;22;20146;-93
2022/03/30 20:12:28;;;;;;;26.80;15.07;;;13.20;86.80;;;;;;6259497;22;20169;-94
2022/03/30 20:14:56;;;;;;;27.13;15.30;;;13.20;88.00;;;;;;6288520;22;20159;-93
2022/03/30 20:17:23;;;;;;;22.47;14.43;;;13.20;89.20;;;;;;6255926;22;20150;-91
2022/03/30 20:19:48;;;;;;;23.90;14.63;;;13.10;89.20;;;;;;6256266;22;20170;-92
2022/03/30 20:22:15;;;;;;;23.20;15.00;;;13.20;88.70;;;;;;6284485;22;20158;-93
2022/03/30 20:24:41;;;;;;;25.67;15.10;;;13.20;88.60;;;;;;6257616;22;20207;-92
2022/03/30 20:27:07;;;;;;;22.57;14.03;;;13.10;89.40;;;;;;6290359;22;20173;-94
2022/03/30 20:29:33;;;;;;;27.30;14.67;;;13.30;89.00;;;;;;6262430;22;20149;-95
2022/03/30 20:32:00;;;;;;;21.10;14.57;;;13.20;90.00;;;;;;6264787;22;20190;-94
2022/03/30 20:34:27;;;;;;;34.83;15.33;;;13.00;90.50;;;;;;6257733;22;20154;-95
2022/03/30 20:36:53;;;;;;;23.40;15.70;;;13.00;90.70;;;;;;6252972;22;20185;-95
2022/03/30 20:39:18;;;;;;;26.20;15.37;;;13.00;90.10;;;;;;6252800;22;20162;-95
2022/03/30 20:41:44;;;;;;;22.83;15.27;;;13.00;90.40;;;;;;6252709;22;20153;-94
2022/03/30 20:44:10;;;;;;;24.03;14.70;;;12.90;90.50;;;;;;6252180;22;20592;-95
2022/03/30 20:46:36;;;;;;;26.23;15.60;;;12.90;90.50;;;;;;6252590;22;20235;-95
2022/03/30 20:49:02;;;;;;;24.07;15.17;;;12.80;91.00;;;;;;6254170;22;20158;-94
2022/03/30 20:51:28;;;;;;;26.93;14.83;;;12.90;90.60;;;;;;6253105;22;20184;-95
2022/03/30 20:53:54;;;;;;;27.60;15.40;;;12.80;90.00;;;;;;6252682;22;20145;-96
2022/03/30 20:56:19;;;;;;;26.27;15.33;;;12.90;90.60;;;;;;6278129;22;20138;-88
2022/03/30 20:58:45;;;;;;;25.20;15.67;;;12.80;91.40;;;;;;6250026;22;20230;-90
2022/03/30 21:01:11;;;;;;;23.23;15.83;;;12.70;91.40;;;;;;6250919;22;20153;-92
2022/03/30 21:03:37;;;;;;;29.27;15.43;;;12.60;91.60;;;;;;6272776;22;20164;-89
2022/03/30 21:06:03;;;;;;;24.63;15.27;;;12.70;91.50;;;;;;6247480;22;20176;-92
2022/03/30 21:08:29;;;;;;;25.77;15.77;;;12.80;91.40;;;;;;6250920;22;20241;-92
2022/03/30 21:10:55;;;;;;;26.37;16.60;;;12.70;91.00;;;;;;6250912;22;20180;-91
2022/03/30 21:13:21;;;;;;;28.10;15.47;;;12.70;92.10;;;;;;6250070;22;20153;-91
2022/03/30 21:15:47;;;;;;;29.10;17.00;;;12.80;90.80;;;;;;6250870;22;20243;-91
2022/03/30 21:18:13;;;;;;;27.37;16.17;;;12.80;90.50;;;;;;6251015;22;20184;-89
2022/03/30 21:20:40;;;;;;;28.87;16.70;;;12.70;91.00;;;;;;6251428;22;20173;-91
2022/03/30 21:23:10;;;;;;;26.87;16.50;;;12.70;91.10;;;;;;6250840;22;20161;-89
2022/03/30 21:25:37;;;;;;;28.17;17.67;;;12.70;91.40;;;;;;6249569;22;20160;-88
2022/03/30 21:28:03;;;;;;;26.63;18.33;;;12.70;91.70;;;;;;6250729;22;20157;-90
2022/03/30 21:30:28;;;;;;;28.07;17.80;;;12.60;91.90;;;;;;6251079;22;20154;-90
2022/03/30 21:32:54;;;;;;;26.80;16.50;;;12.70;91.60;;;;;;6250148;22;20212;-91
2022/03/30 21:35:20;;;;;;;30.73;16.90;;;12.50;91.80;;;;;;6251130;22;20478;-89
2022/03/30 21:37:46;;;;;;;28.67;18.60;;;12.50;91.80;;;;;;6257223;22;20192;-92
2022/03/30 21:40:13;;;;;;;30.10;17.67;;;12.50;92.20;;;;;;6252101;22;20161;-91
2022/03/30 21:42:39;;;;;;;27.53;17.27;;;12.50;91.90;;;;;;6250550;22;20154;-90
2022/03/30 21:45:07;;;;;;;29.13;17.87;;;12.40;92.10;;;;;;6251775;22;20157;-93
2022/03/30 21:47:33;;;;;;;28.20;17.73;;;12.40;92.70;;;;;;6252495;22;20185;-92
2022/03/30 21:49:59;;;;;;;32.10;18.47;;;12.40;92.80;;;;;;6253225;22;20240;-92
2022/03/30 21:52:24;;;;;;;26.27;16.63;;;12.40;92.80;;;;;;6279542;22;20161;-91
2022/03/30 21:54:50;;;;;;;27.53;17.67;;;12.50;92.20;;;;;;6254590;22;20149;-91
2022/03/30 21:57:16;;;;;;;29.40;18.20;;;12.60;91.80;;;;;;6266931;22;20180;-90
2022/03/30 21:59:41;;;;;;;28.53;16.67;;;12.50;91.90;;;;;;6266707;22;20595;-88
2022/03/30 22:02:07;;;;;;;27.13;17.53;;;12.50;91.90;;;;;;6261197;22;20602;-91
2022/03/30 22:04:33;;;;;;;26.50;17.03;;;12.50;92.60;;;;;;6247527;22;20173;-93
2022/03/30 22:06:59;;;;;;;27.73;16.90;;;12.50;92.00;;;;;;6249236;22;20212;-92
2022/03/30 22:09:25;;;;;;;25.77;15.70;;;12.50;91.50;;;;;;6248693;22;20156;-91
2022/03/30 22:11:54;;;;;;;26.37;16.97;;;12.60;91.90;;;;;;6274052;22;20154;-91
2022/03/30 22:14:21;;;;;;;24.80;17.00;;;12.60;91.40;;;;;;6249983;22;20160;-91
2022/03/30 22:16:49;;;;;;;30.50;17.13;;;12.60;91.30;;;;;;6249745;22;20157;-91
2022/03/30 22:19:19;;;;;;;32.20;17.20;;;12.40;91.90;;;;;;6250189;22;20165;-91
2022/03/30 22:21:45;;;;;;;27.50;16.90;;;12.50;92.30;;;;;;6275292;22;20177;-92
2022/03/30 22:24:11;;;;;;;28.77;17.30;;;12.60;92.40;;;;;;6275208;22;20149;-89
2022/03/30 22:26:37;;;;;;;31.77;17.67;;;12.70;92.10;;;;;;6249445;22;20577;-89
2022/03/30 22:29:04;;;;;;;25.47;17.53;;;12.60;92.10;;;;;;6250161;22;20154;-92
2022/03/30 22:36:58;;;;;;;28.53;17.97;;;12.50;92.20;;;;;;6277892;22;20210;-90
2022/03/30 22:39:24;;;;;;;30.50;18.60;;;12.60;92.40;;;;;;6252685;22;20152;-92
2022/03/30 22:41:53;;;;;;;30.00;18.00;;;12.70;92.50;;;;;;6252509;22;20187;-92
2022/03/30 22:44:19;;;;;;;30.07;19.07;;;12.50;93.20;;;;;;6252079;22;20581;-92